Accueil
METAR-TAF:

METAR-TAF

Aéroports :

Farnborough, Angleterre

latitude: 51-17N, longitude: 000-46W, altitude: 65 m

Observation

Le bulletin a été fait il y a 42 minutes, à 01:50 UTC
Vent 4 kt de sud-ouest
Température 1°C
Humidité 93%
Pression 1032 hPa
Visibilité 10 km ou plus

METAR: EGLF 240150Z AUTO 22004KT 9999 NCD 01/00 Q1032

Heure: 02:32 (02:32 UTC)

Prévision

Le bulletin a été fait il y a 9 heures et 31 minutes, à 17:01 UTC
Prévision valable du 23 à 18 UTC au 23 à 20 UTC
Vent 8 kt de nord-est
Visibilité 10 km ou plus
Nuages épars à une hauteur de 4500 ft

TAF: EGLF 231701Z 2318/2320 05008KT 9999 SCT045

Observations et prévisions météorologiques de plus de 4000 aéroports (messages METAR et TAF).

Les stations disponibles sont représentées par des disques jaunes et rouges sur la carte.

Passer la souris dessus pour voir le nom de la station.

Cliquer dessus pour voir les observations et prévisions météorologiques.

Pour changer de carte: cliquez sur les boutons verts avec une croix noire pour zoomer, sur le bouton vert avec un tiret pour effectuer un zoom arrière, ou sur les flèches vertes pour les cartes adjacentes.


METAR-TAF: